Time;durP1;ratioP1;P1;durP2;ratioP2;P2;SDS_P1;SDS_P2;PMS_P1;PMS_P2;Temp;Humidity;BMP_temperature;BMP_pressure;BME280_temperature;BME280_humidity;BME280_pressure;Samples;Min_cycle;Max_cycle;Signal;HPM_P1;HPM_P2
2023/04/29 00:00:47;;;;;;;;;;;8.10;64.90;;;;;;4156683;28;19929;-84
2023/04/29 00:03:30;;;;;;;;;;;8.10;64.70;;;;;;4152471;28;20163;-84
2023/04/29 00:05:51;;;;;;;;;;;8.10;64.60;;;;;;4140751;28;20362;-84
2023/04/29 00:07:52;;;;;;;;;;;8.10;64.60;;;;;;4139742;28;19922;-83
2023/04/29 00:09:55;;;;;;;;;;;8.10;64.70;;;;;;4135793;28;20368;-84
2023/04/29 00:11:56;;;;;;;;;;;8.10;64.50;;;;;;4137221;28;20388;-84
2023/04/29 00:14:00;;;;;;;;;;;8.20;64.60;;;;;;4154537;28;19928;-84
2023/04/29 00:16:10;;;;;;;;;;;8.10;64.50;;;;;;4132371;28;19932;-85
2023/04/29 00:18:14;;;;;;;;;;;8.10;64.10;;;;;;4121204;28;19914;-84
2023/04/29 00:20:17;;;;;;;;;;;8.20;64.20;;;;;;4134220;28;19929;-84
2023/04/29 00:22:24;;;;;;;;;;;8.10;63.70;;;;;;4138183;28;19967;-84
2023/04/29 00:24:29;;;;;;;;;;;8.20;63.50;;;;;;4152745;28;20004;-84
2023/04/29 00:26:37;;;;;;;;;;;8.10;63.50;;;;;;4119150;28;19918;-84
2023/04/29 00:28:41;;;;;;;;;;;8.20;63.30;;;;;;4138070;28;19972;-84
2023/04/29 00:30:45;;;;;;;;;;;8.20;63.30;;;;;;4138161;28;20332;-84
2023/04/29 00:32:49;;;;;;;;;;;8.20;63.20;;;;;;4150831;28;19935;-84
2023/04/29 00:34:52;;;;;;;;;;;8.10;63.40;;;;;;4138536;28;19968;-85
2023/04/29 00:36:59;;;;;;;;;;;8.10;63.50;;;;;;4114765;28;19925;-83
2023/04/29 00:39:00;;;;;;;;;;;8.20;63.90;;;;;;4133649;28;19913;-84
2023/04/29 00:41:01;;;;;;;;;;;8.20;64.10;;;;;;4125021;28;19921;-83
2023/04/29 00:43:24;;;;;;;;;;;8.20;64.30;;;;;;4154786;28;19924;-85
2023/04/29 00:45:45;;;;;;;;;;;8.10;64.50;;;;;;4151024;28;19917;-84
2023/04/29 00:47:46;;;;;;;;;;;8.10;64.60;;;;;;4154343;28;19913;-83
2023/04/29 00:49:52;;;;;;;;;;;8.10;64.60;;;;;;4152924;28;19921;-84
2023/04/29 00:51:53;;;;;;;;;;;8.20;64.50;;;;;;4168428;28;19920;-84
2023/04/29 00:53:54;;;;;;;;;;;8.20;64.50;;;;;;4150884;28;19916;-84
2023/04/29 00:55:55;;;;;;;;;;;8.20;64.50;;;;;;4151259;28;20403;-84
2023/04/29 00:57:55;;;;;;;;;;;8.20;64.50;;;;;;4147161;28;19923;-84
2023/04/29 00:59:57;;;;;;;;;;;8.20;64.60;;;;;;4146817;28;19932;-84
2023/04/29 01:02:01;;;;;;;;;;;8.10;64.60;;;;;;4136634;28;19917;-84
2023/04/29 01:04:04;;;;;;;;;;;8.20;64.70;;;;;;4150137;28;19917;-84
2023/04/29 01:06:07;;;;;;;;;;;8.10;64.60;;;;;;4150088;28;19999;-84
2023/04/29 01:08:10;;;;;;;;;;;8.10;64.50;;;;;;4153591;28;19967;-84
2023/04/29 01:10:13;;;;;;;;;;;8.10;64.60;;;;;;4150033;28;20048;-84
2023/04/29 01:12:19;;;;;;;;;;;8.20;64.60;;;;;;4152677;28;20403;-84
2023/04/29 01:14:20;;;;;;;;;;;8.10;64.50;;;;;;4164908;28;19921;-84
2023/04/29 01:16:28;;;;;;;;;;;8.10;64.50;;;;;;4134273;28;20004;-83
2023/04/29 01:18:32;;;;;;;;;;;8.10;64.60;;;;;;4152438;28;19921;-84
2023/04/29 01:20:33;;;;;;;;;;;8.10;64.60;;;;;;4148644;28;19937;-84
2023/04/29 01:22:34;;;;;;;;;;;8.20;64.60;;;;;;4140685;28;19960;-84
2023/04/29 01:24:35;;;;;;;;;;;8.20;64.60;;;;;;4149248;28;19931;-84
2023/04/29 01:26:35;;;;;;;;;;;8.20;64.70;;;;;;4150499;28;19917;-85
2023/04/29 01:28:45;;;;;;;;;;;8.10;64.90;;;;;;4146910;28;19971;-83
2023/04/29 01:31:05;;;;;;;;;;;8.10;65.00;;;;;;4144113;28;19917;-83
2023/04/29 01:33:19;;;;;;;;;;;8.10;65.10;;;;;;4149334;28;19913;-84
2023/04/29 01:35:26;;;;;;;;;;;8.10;64.90;;;;;;4150996;28;19963;-83
2023/04/29 01:37:38;;;;;;;;;;;8.10;64.80;;;;;;4151724;28;20077;-84
2023/04/29 01:39:48;;;;;;;;;;;8.10;65.10;;;;;;4154858;28;19928;-84
2023/04/29 01:41:56;;;;;;;;;;;8.10;65.10;;;;;;4150252;28;19921;-84
2023/04/29 01:43:57;;;;;;;;;;;8.10;65.20;;;;;;4156902;28;19913;-84
2023/04/29 01:45:58;;;;;;;;;;;8.10;65.30;;;;;;4151486;28;19921;-83
2023/04/29 01:48:03;;;;;;;;;;;8.10;65.20;;;;;;4158234;28;20402;-83
2023/04/29 01:50:04;;;;;;;;;;;8.10;65.20;;;;;;4169136;28;19971;-84
2023/04/29 01:52:05;;;;;;;;;;;8.10;65.10;;;;;;4155774;28;19917;-83
2023/04/29 01:56:10;;;;;;;;;;;8.10;65.20;;;;;;4139302;28;19933;-86
2023/04/29 01:58:11;;;;;;;;;;;8.10;65.30;;;;;;4131440;28;19913;-88
2023/04/29 02:00:12;;;;;;;;;;;8.10;65.40;;;;;;4143235;28;19917;-87
2023/04/29 02:02:24;;;;;;;;;;;;;;;;;;;;;
2023/04/29 02:04:51;;;;;;;;;;;8.10;65.30;;;;;;4151831;28;19952;-88
2023/04/29 02:06:52;;;;;;;;;;;8.10;65.20;;;;;;4139662;28;19924;-88
2023/04/29 02:08:52;;;;;;;;;;;8.10;65.30;;;;;;4127846;28;19928;-87
2023/04/29 02:10:56;;;;;;;;;;;8.10;65.30;;;;;;4139485;28;19914;-87
2023/04/29 02:12:57;;;;;;;;;;;8.10;65.30;;;;;;4125349;28;19917;-88
2023/04/29 02:14:59;;;;;;;;;;;8.00;65.30;;;;;;4136124;28;20360;-88
2023/04/29 02:17:05;;;;;;;;;;;8.10;65.30;;;;;;4140665;28;19972;-88
2023/04/29 02:19:05;;;;;;;;;;;8.00;65.30;;;;;;4140789;28;20284;-88
2023/04/29 02:21:06;;;;;;;;;;;8.00;65.30;;;;;;4142614;28;19986;-87
2023/04/29 02:23:07;;;;;;;;;;;8.00;65.20;;;;;;4142693;28;19920;-88
2023/04/29 02:25:10;;;;;;;;;;;8.00;65.20;;;;;;4145551;28;20276;-88
2023/04/29 02:27:10;;;;;;;;;;;8.00;65.30;;;;;;4126733;28;19918;-87
2023/04/29 02:29:11;;;;;;;;;;;7.90;65.40;;;;;;4142250;28;19917;-88
2023/04/29 02:31:12;;;;;;;;;;;8.00;65.40;;;;;;4127214;28;19963;-87
2023/04/29 02:33:13;;;;;;;;;;;7.90;65.20;;;;;;4129513;28;19925;-88
2023/04/29 02:35:13;;;;;;;;;;;8.00;65.40;;;;;;4138908;28;19995;-87
2023/04/29 02:37:14;;;;;;;;;;;7.90;65.50;;;;;;4136412;28;19924;-87
2023/04/29 02:39:15;;;;;;;;;;;7.90;65.20;;;;;;4138475;28;20013;-88
2023/04/29 02:41:17;;;;;;;;;;;8.00;65.40;;;;;;4135782;28;19929;-87
2023/04/29 02:43:17;;;;;;;;;;;7.90;65.30;;;;;;4140227;28;19924;-88
2023/04/29 02:45:18;;;;;;;;;;;8.00;65.30;;;;;;4137863;28;19914;-87
2023/04/29 02:47:18;;;;;;;;;;;8.00;65.40;;;;;;4140676;28;19967;-87
2023/04/29 02:49:19;;;;;;;;;;;8.00;65.40;;;;;;4142443;28;20054;-88
2023/04/29 02:51:19;;;;;;;;;;;7.90;65.40;;;;;;4140283;28;19928;-88
2023/04/29 02:53:20;;;;;;;;;;;7.90;65.40;;;;;;4139781;28;19921;-87
2023/04/29 02:55:21;;;;;;;;;;;7.90;65.50;;;;;;4139681;28;19925;-89
2023/04/29 02:57:22;;;;;;;;;;;7.90;65.70;;;;;;4138910;28;19924;-88
2023/04/29 02:59:22;;;;;;;;;;;7.90;65.60;;;;;;4138683;28;19917;-88
2023/04/29 03:01:23;;;;;;;;;;;7.90;65.50;;;;;;4143805;28;19940;-87
2023/04/29 03:03:24;;;;;;;;;;;7.90;65.60;;;;;;4142242;28;20645;-88
2023/04/29 03:05:25;;;;;;;;;;;7.80;65.60;;;;;;4124853;28;19937;-87
2023/04/29 03:07:27;;;;;;;;;;;7.90;65.80;;;;;;4141102;28;19918;-87
2023/04/29 03:09:28;;;;;;;;;;;7.90;65.60;;;;;;4155095;28;19952;-88
2023/04/29 03:11:28;;;;;;;;;;;7.80;65.40;;;;;;4129617;28;19928;-88
2023/04/29 03:13:29;;;;;;;;;;;7.80;65.40;;;;;;4116034;28;19921;-88
2023/04/29 03:15:30;;;;;;;;;;;7.90;65.30;;;;;;4138506;28;20024;-88
2023/04/29 03:17:31;;;;;;;;;;;7.80;65.20;;;;;;4139632;28;19914;-87
2023/04/29 03:19:31;;;;;;;;;;;7.80;65.10;;;;;;4139407;28;19968;-87
2023/04/29 03:21:32;;;;;;;;;;;7.80;64.90;;;;;;4159194;28;19921;-88
2023/04/29 03:23:33;;;;;;;;;;;7.80;65.00;;;;;;4125687;28;19921;-88
2023/04/29 03:25:33;;;;;;;;;;;7.80;65.00;;;;;;4141445;28;19914;-87
2023/04/29 03:27:34;;;;;;;;;;;7.90;65.00;;;;;;4138617;28;19968;-88
2023/04/29 03:29:35;;;;;;;;;;;7.80;65.10;;;;;;4125922;28;19928;-87
2023/04/29 03:31:36;;;;;;;;;;;7.90;65.10;;;;;;4142362;28;19918;-87
2023/04/29 03:33:36;;;;;;;;;;;7.80;64.80;;;;;;4141164;28;19913;-88
2023/04/29 03:35:37;;;;;;;;;;;7.80;65.00;;;;;;4142595;28;20034;-88
2023/04/29 03:37:37;;;;;;;;;;;7.80;65.20;;;;;;4130834;28;19914;-88
2023/04/29 03:39:38;;;;;;;;;;;7.80;65.20;;;;;;4118967;28;19917;-87
2023/04/29 03:41:39;;;;;;;;;;;7.80;65.20;;;;;;4143557;28;19999;-87
2023/04/29 03:43:40;;;;;;;;;;;7.80;65.50;;;;;;4141280;28;19917;-87
2023/04/29 03:45:40;;;;;;;;;;;7.80;65.30;;;;;;4139892;28;19918;-88
2023/04/29 03:47:41;;;;;;;;;;;7.90;65.30;;;;;;4137786;28;19992;-87
2023/04/29 03:49:42;;;;;;;;;;;7.90;65.40;;;;;;4143570;28;20388;-88
2023/04/29 03:51:46;;;;;;;;;;;7.80;65.30;;;;;;4148548;28;19914;-89
2023/04/29 03:53:47;;;;;;;;;;;7.80;65.20;;;;;;4143557;28;19917;-88
2023/04/29 03:55:47;;;;;;;;;;;7.80;65.10;;;;;;4138314;28;20580;-88
2023/04/29 03:57:48;;;;;;;;;;;7.80;65.20;;;;;;4140668;28;19918;-88
2023/04/29 03:59:51;;;;;;;;;;;7.80;65.20;;;;;;4140423;28;19922;-88
2023/04/29 04:01:53;;;;;;;;;;;7.80;65.20;;;;;;4138449;28;19914;-88
2023/04/29 04:03:53;;;;;;;;;;;7.80;65.20;;;;;;4137184;28;19968;-88
2023/04/29 04:05:54;;;;;;;;;;;7.90;65.50;;;;;;4140999;28;19918;-89
2023/04/29 04:07:55;;;;;;;;;;;7.80;65.40;;;;;;4137934;28;20521;-88
2023/04/29 04:09:56;;;;;;;;;;;7.90;65.30;;;;;;4137689;28;19913;-88
2023/04/29 04:12:01;;;;;;;;;;;7.80;65.10;;;;;;4140734;28;19917;-87
2023/04/29 04:14:22;;;;;;;;;;;7.80;65.10;;;;;;4134879;28;20038;-88
2023/04/29 04:16:22;;;;;;;;;;;7.80;65.20;;;;;;4133924;28;19955;-87
2023/04/29 04:18:23;;;;;;;;;;;7.90;65.40;;;;;;4137544;28;19917;-87
2023/04/29 04:20:24;;;;;;;;;;;7.80;65.10;;;;;;4122516;28;19960;-87
2023/04/29 04:22:58;;;;;;;;;;;7.80;65.20;;;;;;4147668;28;19945;-87
2023/04/29 04:24:58;;;;;;;;;;;7.90;65.30;;;;;;4216062;22;19914;-88
2023/04/29 04:26:59;;;;;;;;;;;7.80;65.30;;;;;;4129707;28;19932;-87
2023/04/29 04:29:00;;;;;;;;;;;7.80;65.30;;;;;;4105452;28;19918;-89
2023/04/29 04:31:22;;;;;;;;;;;7.90;65.50;;;;;;4108107;28;19937;-88
2023/04/29 04:33:23;;;;;;;;;;;7.90;66.40;;;;;;4136413;28;19967;-88
2023/04/29 04:35:24;;;;;;;;;;;7.90;65.60;;;;;;4116955;28;19924;-88
2023/04/29 04:37:25;;;;;;;;;;;7.80;65.60;;;;;;4107890;28;20117;-86
2023/04/29 04:39:26;;;;;;;;;;;7.90;65.60;;;;;;4122629;28;20016;-86
2023/04/29 04:41:56;;;;;;;;;;;7.90;65.70;;;;;;4101629;28;19919;-87
2023/04/29 04:43:57;;;;;;;;;;;7.90;66.20;;;;;;4104955;28;19918;-86
2023/04/29 04:45:57;;;;;;;;;;;7.90;65.80;;;;;;4107073;28;20013;-87
2023/04/29 04:47:58;;;;;;;;;;;7.90;66.00;;;;;;4103309;28;19914;-87
2023/04/29 04:49:59;;;;;;;;;;;8.00;65.90;;;;;;4121098;28;19940;-87
2023/04/29 04:52:00;;;;;;;;;;;8.00;65.90;;;;;;4105416;28;20375;-86
2023/04/29 04:54:09;;;;;;;;;;;8.00;65.90;;;;;;4106802;28;19925;-87
2023/04/29 04:56:09;;;;;;;;;;;7.90;65.70;;;;;;4121462;28;19918;-89
2023/04/29 04:58:10;;;;;;;;;;;7.90;65.70;;;;;;4086857;28;19918;-87
2023/04/29 05:00:11;;;;;;;;;;;8.00;65.80;;;;;;4102799;28;19941;-87
2023/04/29 05:02:11;;;;;;;;;;;8.00;65.70;;;;;;4122755;28;19929;-87
2023/04/29 05:04:12;;;;;;;;;;;8.00;66.00;;;;;;4104972;28;19930;-87
2023/04/29 05:06:13;;;;;;;;;;;8.00;65.60;;;;;;4121294;28;19926;-87
2023/04/29 05:08:14;;;;;;;;;;;8.00;65.50;;;;;;4119141;28;20383;-87
2023/04/29 05:10:14;;;;;;;;;;;8.00;65.60;;;;;;4102179;28;19921;-88
2023/04/29 05:12:15;;;;;;;;;;;8.00;65.70;;;;;;4105102;28;19957;-88
2023/04/29 05:14:16;;;;;;;;;;;7.90;65.80;;;;;;4117586;28;19918;-88
2023/04/29 05:16:17;;;;;;;;;;;8.10;65.90;;;;;;4103657;28;20016;-88
2023/04/29 05:18:18;;;;;;;;;;;8.10;66.00;;;;;;4104707;28;19953;-88
2023/04/29 05:20:20;;;;;;;;;;;8.00;66.20;;;;;;4105317;28;19926;-88
2023/04/29 05:22:20;;;;;;;;;;;8.00;66.20;;;;;;4123076;28;19913;-87
2023/04/29 05:24:21;;;;;;;;;;;8.10;66.40;;;;;;4106435;28;19918;-87
2023/04/29 05:26:22;;;;;;;;;;;8.00;66.30;;;;;;4109037;28;19933;-88
2023/04/29 05:28:23;;;;;;;;;;;8.10;66.40;;;;;;4120623;28;19921;-87
2023/04/29 05:30:23;;;;;;;;;;;8.10;66.40;;;;;;4114497;28;20006;-87
2023/04/29 05:32:24;;;;;;;;;;;8.10;66.40;;;;;;4109119;28;19962;-87
2023/04/29 05:34:25;;;;;;;;;;;8.20;66.50;;;;;;4119587;28;19918;-88
2023/04/29 05:36:26;;;;;;;;;;;8.10;66.40;;;;;;4109646;28;20034;-88
2023/04/29 05:38:27;;;;;;;;;;;8.10;66.30;;;;;;4107826;28;19945;-87
2023/04/29 05:40:28;;;;;;;;;;;8.20;66.20;;;;;;4108678;28;19925;-88
2023/04/29 05:42:31;;;;;;;;;;;8.20;66.30;;;;;;4122401;28;20017;-87
2023/04/29 05:44:32;;;;;;;;;;;8.20;66.20;;;;;;4112747;28;19926;-87
2023/04/29 05:46:33;;;;;;;;;;;8.20;66.10;;;;;;4128147;28;19911;-88
2023/04/29 05:48:51;;;;;;;;;;;8.30;66.10;;;;;;4127310;28;19941;-87
2023/04/29 05:50:52;;;;;;;;;;;8.30;66.20;;;;;;4109503;28;19960;-87
2023/04/29 05:52:55;;;;;;;;;;;8.20;66.10;;;;;;4125604;28;19921;-88
2023/04/29 05:54:56;;;;;;;;;;;8.30;66.10;;;;;;4107288;28;19922;-88
2023/04/29 05:57:36;;;;;;;;;;;;;;;;;;;;;
2023/04/29 05:59:46;;;;;;;;;;;8.20;66.00;;;;;;4123789;28;20427;-89
2023/04/29 06:01:47;;;;;;;;;;;8.30;66.20;;;;;;4109115;28;19958;-88
2023/04/29 06:03:48;;;;;;;;;;;8.30;66.10;;;;;;4105269;28;19922;-87
2023/04/29 06:05:57;;;;;;;;;;;8.30;66.20;;;;;;4108276;28;19929;-88
2023/04/29 06:07:58;;;;;;;;;;;8.30;66.40;;;;;;4109036;28;19964;-88
2023/04/29 06:09:59;;;;;;;;;;;8.30;66.30;;;;;;4107636;28;20321;-88
2023/04/29 06:11:59;;;;;;;;;;;8.30;66.40;;;;;;4109731;28;19918;-87
2023/04/29 06:14:00;;;;;;;;;;;8.40;66.30;;;;;;4123371;28;19920;-88
2023/04/29 06:16:01;;;;;;;;;;;8.30;66.30;;;;;;4088728;28;19945;-88
2023/04/29 06:18:01;;;;;;;;;;;8.30;66.20;;;;;;4104837;28;19918;-88
2023/04/29 06:20:03;;;;;;;;;;;8.30;66.30;;;;;;4108118;28;19918;-87
2023/04/29 06:22:03;;;;;;;;;;;8.40;66.40;;;;;;4109920;28;19920;-88
2023/04/29 06:24:07;;;;;;;;;;;8.40;66.20;;;;;;4104750;28;20005;-88
2023/04/29 06:26:07;;;;;;;;;;;8.40;66.20;;;;;;4107573;28;20532;-87
2023/04/29 06:28:28;;;;;;;;;;;8.50;66.50;;;;;;4107077;28;19981;-88
2023/04/29 06:30:49;;;;;;;;;;;8.40;66.20;;;;;;4087536;28;19914;-88
2023/04/29 06:32:50;;;;;;;;;;;8.50;66.30;;;;;;4103288;28;19922;-87
2023/04/29 06:34:51;;;;;;;;;;;8.50;66.30;;;;;;4102669;28;19934;-88
2023/04/29 06:36:51;;;;;;;;;;;8.50;66.20;;;;;;4103414;28;19926;-88
2023/04/29 06:38:52;;;;;;;;;;;8.60;66.10;;;;;;4108166;28;20272;-88
2023/04/29 06:40:52;;;;;;;;;;;8.70;66.00;;;;;;4106981;28;19984;-88
2023/04/29 06:43:18;;;;;;;;;;;8.70;65.50;;;;;;4110035;28;19918;-88
2023/04/29 06:47:29;;;;;;;;;;;8.70;65.30;;;;;;538370;26;20199;-87
2023/04/29 06:49:30;;;;;;;;;;;8.70;65.30;;;;;;4170283;28;19921;-89
2023/04/29 06:51:31;;;;;;;;;;;8.80;65.50;;;;;;4156836;28;20076;-88
2023/04/29 06:53:31;;;;;;;;;;;8.80;65.50;;;;;;4186243;28;19975;-88
2023/04/29 06:55:34;;;;;;;;;;;9.00;65.20;;;;;;4157271;28;19988;-89
2023/04/29 06:57:35;;;;;;;;;;;9.00;65.40;;;;;;4142088;28;20032;-88
2023/04/29 06:59:36;;;;;;;;;;;9.10;65.50;;;;;;4162331;28;19929;-88
2023/04/29 07:01:37;;;;;;;;;;;9.10;65.40;;;;;;4150732;28;20008;-87
2023/04/29 07:03:38;;;;;;;;;;;9.20;65.30;;;;;;4155441;28;19913;-88
2023/04/29 07:05:40;;;;;;;;;;;9.20;65.20;;;;;;4157918;28;19921;-88
2023/04/29 07:07:41;;;;;;;;;;;9.30;64.90;;;;;;4149535;28;19961;-87
2023/04/29 07:09:41;;;;;;;;;;;9.30;65.00;;;;;;4118429;28;19929;-89
2023/04/29 07:11:42;;;;;;;;;;;9.40;65.90;;;;;;4139972;28;19928;-87
2023/04/29 07:13:43;;;;;;;;;;;9.50;64.80;;;;;;4126837;28;19967;-88
2023/04/29 07:15:43;;;;;;;;;;;9.60;64.40;;;;;;4132180;28;20058;-88
2023/04/29 07:17:44;;;;;;;;;;;9.60;64.00;;;;;;4131318;28;20013;-88
2023/04/29 07:19:45;;;;;;;;;;;9.70;63.90;;;;;;4133215;28;19925;-87
2023/04/29 07:21:46;;;;;;;;;;;9.70;63.80;;;;;;4129726;28;20032;-88
2023/04/29 07:23:46;;;;;;;;;;;9.70;63.30;;;;;;4132977;28;20022;-87
2023/04/29 07:25:47;;;;;;;;;;;9.80;62.90;;;;;;4129239;28;20383;-89
2023/04/29 07:27:48;;;;;;;;;;;9.90;62.80;;;;;;4129343;28;19928;-88
2023/04/29 07:29:49;;;;;;;;;;;9.80;62.90;;;;;;4130823;28;20427;-89
2023/04/29 07:31:52;;;;;;;;;;;9.90;62.90;;;;;;4116734;28;19921;-87
2023/04/29 07:33:54;;;;;;;;;;;9.90;62.10;;;;;;4123447;28;19967;-86
2023/04/29 07:35:54;;;;;;;;;;;10.00;62.20;;;;;;4118230;28;19956;-86
2023/04/29 07:37:55;;;;;;;;;;;10.00;62.30;;;;;;4131604;28;19917;-86
2023/04/29 07:39:56;;;;;;;;;;;10.00;61.60;;;;;;4131827;28;19943;-87
2023/04/29 07:41:56;;;;;;;;;;;10.10;61.60;;;;;;4130254;28;19944;-86
2023/04/29 07:43:57;;;;;;;;;;;10.20;61.80;;;;;;4120777;28;19928;-87
2023/04/29 07:45:58;;;;;;;;;;;10.10;61.70;;;;;;4117245;28;21980;-87
2023/04/29 07:47:59;;;;;;;;;;;10.20;61.20;;;;;;4120163;28;19930;-87
2023/04/29 07:50:00;;;;;;;;;;;10.20;61.00;;;;;;4129349;28;19914;-86
2023/04/29 07:52:01;;;;;;;;;;;10.20;61.00;;;;;;4133724;28;20031;-86
2023/04/29 07:54:01;;;;;;;;;;;10.30;61.20;;;;;;4145664;28;19952;-86
2023/04/29 07:56:06;;;;;;;;;;;10.30;61.50;;;;;;4135016;28;19921;-87
2023/04/29 07:58:06;;;;;;;;;;;10.30;61.50;;;;;;4135452;28;20430;-87
2023/04/29 08:00:08;;;;;;;;;;;10.40;61.50;;;;;;4118205;28;20048;-86
2023/04/29 08:02:09;;;;;;;;;;;10.50;61.20;;;;;;4135180;28;19917;-87
2023/04/29 08:04:12;;;;;;;;;;;10.50;61.10;;;;;;4127262;28;19977;-87
2023/04/29 08:06:12;;;;;;;;;;;10.70;60.90;;;;;;4131492;28;19917;-87
2023/04/29 08:08:14;;;;;;;;;;;10.70;60.80;;;;;;4129189;28;19917;-86
2023/04/29 08:10:15;;;;;;;;;;;10.70;60.50;;;;;;4112525;28;20495;-87
2023/04/29 08:12:15;;;;;;;;;;;10.80;60.20;;;;;;4126627;28;19948;-86
2023/04/29 08:14:16;;;;;;;;;;;10.90;59.70;;;;;;4127349;28;19921;-86
2023/04/29 08:16:17;;;;;;;;;;;11.00;59.70;;;;;;4145352;28;19925;-87
2023/04/29 08:18:18;;;;;;;;;;;11.10;59.30;;;;;;4163441;23;19980;-85
2023/04/29 08:20:19;;;;;;;;;;;11.10;59.50;;;;;;4102338;28;20412;-86
2023/04/29 08:22:19;;;;;;;;;;;11.30;59.80;;;;;;4103634;28;20037;-85
2023/04/29 08:24:21;;;;;;;;;;;11.30;59.90;;;;;;4105698;28;19922;-84
2023/04/29 08:26:22;;;;;;;;;;;11.40;60.10;;;;;;4108883;28;20008;-84
2023/04/29 08:28:22;;;;;;;;;;;11.50;59.10;;;;;;4109449;28;19998;-85
2023/04/29 08:30:23;;;;;;;;;;;11.50;59.70;;;;;;4107937;28;20005;-85
2023/04/29 08:32:24;;;;;;;;;;;11.60;59.60;;;;;;4101524;28;19940;-85
2023/04/29 08:34:24;;;;;;;;;;;11.70;59.30;;;;;;4102328;28;20016;-85
2023/04/29 08:36:27;;;;;;;;;;;11.80;58.50;;;;;;4119238;28;19918;-85
2023/04/29 08:38:28;;;;;;;;;;;11.90;57.60;;;;;;4118119;28;19992;-86
2023/04/29 08:40:29;;;;;;;;;;;12.00;57.20;;;;;;4104263;28;20347;-87
2023/04/29 08:42:35;;;;;;;;;;;12.10;57.00;;;;;;4117313;28;20013;-87
2023/04/29 08:44:39;;;;;;;;;;;12.00;56.60;;;;;;4097640;28;19997;-84
2023/04/29 08:46:40;;;;;;;;;;;12.10;56.30;;;;;;4083986;28;19989;-84
2023/04/29 08:48:41;;;;;;;;;;;12.20;55.40;;;;;;4108032;28;19922;-83
2023/04/29 08:50:49;;;;;;;;;;;12.30;55.40;;;;;;4102858;28;19973;-85
2023/04/29 08:52:50;;;;;;;;;;;12.30;54.60;;;;;;4107751;28;19923;-85
2023/04/29 08:54:53;;;;;;;;;;;12.40;54.80;;;;;;4111453;28;19914;-85
2023/04/29 08:57:02;;;;;;;;;;;12.40;55.40;;;;;;4106251;28;19914;-85
2023/04/29 08:59:03;;;;;;;;;;;12.50;55.70;;;;;;4122069;28;19918;-85
2023/04/29 09:01:07;;;;;;;;;;;12.50;53.30;;;;;;4111576;28;19916;-85
2023/04/29 09:03:23;;;;;;;;;;;12.50;52.50;;;;;;4119995;28;19964;-84
2023/04/29 09:05:25;;;;;;;;;;;12.60;52.30;;;;;;4111413;28;20201;-85
2023/04/29 09:07:26;;;;;;;;;;;12.70;53.20;;;;;;4111744;28;19945;-84
2023/04/29 09:09:31;;;;;;;;;;;12.80;53.00;;;;;;4108528;28;19918;-85
2023/04/29 09:11:35;;;;;;;;;;;12.70;52.30;;;;;;4095391;28;20179;-84
2023/04/29 09:13:36;;;;;;;;;;;12.80;51.70;;;;;;4093479;28;20001;-84
2023/04/29 09:15:39;;;;;;;;;;;12.80;50.90;;;;;;4094312;28;19915;-85
2023/04/29 09:17:46;;;;;;;;;;;12.80;50.70;;;;;;4117423;28;20540;-84
2023/04/29 09:19:47;;;;;;;;;;;12.90;50.80;;;;;;4117837;28;19922;-85
2023/04/29 09:21:53;;;;;;;;;;;12.90;50.80;;;;;;4115763;28;21045;-85
2023/04/29 09:23:54;;;;;;;;;;;13.00;50.40;;;;;;4123975;28;20008;-85
2023/04/29 09:25:55;;;;;;;;;;;13.00;50.60;;;;;;4111843;28;19922;-84
2023/04/29 09:27:56;;;;;;;;;;;13.00;50.60;;;;;;4105426;28;19918;-85
2023/04/29 09:30:00;;;;;;;;;;;13.10;50.60;;;;;;4108510;28;19925;-84
2023/04/29 09:32:17;;;;;;;;;;;13.10;50.60;;;;;;4119508;28;19929;-84
2023/04/29 09:34:46;;;;;;;;;;;13.10;50.90;;;;;;4102665;28;19930;-85
2023/04/29 09:39:50;;;;;;;;;;;13.20;50.60;;;;;;4125622;28;19909;-84
2023/04/29 09:41:51;;;;;;;;;;;13.20;50.70;;;;;;4111373;28;19973;-84
2023/04/29 09:44:07;;;;;;;;;;;13.30;50.50;;;;;;4105289;28;20692;-84
2023/04/29 09:46:11;;;;;;;;;;;13.20;50.30;;;;;;4105105;28;19910;-84
2023/04/29 09:48:12;;;;;;;;;;;13.30;50.40;;;;;;4105062;28;19922;-85
2023/04/29 09:50:22;;;;;;;;;;;13.20;50.50;;;;;;4103897;28;19919;-84
2023/04/29 09:52:23;;;;;;;;;;;13.20;50.90;;;;;;4109639;28;20352;-84
2023/04/29 09:54:40;;;;;;;;;;;13.20;49.90;;;;;;4107319;28;19917;-84
2023/04/29 09:56:48;;;;;;;;;;;13.10;50.00;;;;;;4110170;28;19919;-86
2023/04/29 09:59:10;;;;;;;;;;;13.10;49.60;;;;;;4111435;28;19914;-85
2023/04/29 10:01:36;;;;;;;;;;;;;;;;;;;;;
2023/04/29 10:03:41;;;;;;;;;;;13.10;48.50;;;;;;4107958;28;20012;-85
2023/04/29 10:05:49;;;;;;;;;;;13.00;47.00;;;;;;4111575;28;19914;-84
2023/04/29 10:10:28;;;;;;;;;;;12.90;46.70;;;;;;4100950;28;20000;-85
2023/04/29 10:12:30;;;;;;;;;;;13.00;46.60;;;;;;4125976;28;19913;-84
2023/04/29 10:14:37;;;;;;;;;;;12.90;46.90;;;;;;4103812;28;20240;-84
2023/04/29 10:16:43;;;;;;;;;;;12.90;46.90;;;;;;4093703;28;19922;-85
2023/04/29 10:18:47;;;;;;;;;;;13.00;47.60;;;;;;4094661;28;19933;-84
2023/04/29 10:21:08;;;;;;;;;;;13.00;47.70;;;;;;4109263;28;19965;-84
2023/04/29 10:23:29;;;;;;;;;;;13.10;47.40;;;;;;4116691;28;20012;-85
2023/04/29 10:25:51;;;;;;;;;;;13.10;47.00;;;;;;4103990;28;19925;-84
2023/04/29 10:28:15;;;;;;;;;;;13.20;46.80;;;;;;4107310;28;19915;-81
2023/04/29 10:30:35;;;;;;;;;;;13.20;46.40;;;;;;4121509;28;19920;-81
2023/04/29 10:32:58;;;;;;;;;;;13.20;46.30;;;;;;4108046;28;19929;-80
2023/04/29 10:35:21;;;;;;;;;;;13.20;46.20;;;;;;4103315;28;19923;-80
2023/04/29 10:37:22;;;;;;;;;;;13.10;46.40;;;;;;4120789;28;19917;-79
2023/04/29 10:39:30;;;;;;;;;;;13.20;46.10;;;;;;4112832;28;20038;-85
2023/04/29 10:41:34;;;;;;;;;;;13.20;46.30;;;;;;4127472;28;20369;-84
2023/04/29 10:43:35;;;;;;;;;;;13.30;46.90;;;;;;4123767;28;20612;-84
2023/04/29 10:45:36;;;;;;;;;;;13.20;47.10;;;;;;4096042;29;19919;-83
2023/04/29 10:47:36;;;;;;;;;;;13.30;47.60;;;;;;4111249;28;19922;-82
2023/04/29 10:49:37;;;;;;;;;;;13.30;47.20;;;;;;4110562;28;19926;-84
2023/04/29 10:51:38;;;;;;;;;;;13.40;47.40;;;;;;4096786;28;19953;-85
2023/04/29 10:54:08;;;;;;;;;;;13.50;47.60;;;;;;4093041;29;19919;-84
2023/04/29 10:56:09;;;;;;;;;;;13.50;48.00;;;;;;4105241;28;20018;-84
2023/04/29 10:58:29;;;;;;;;;;;13.50;47.80;;;;;;4113200;28;19918;-84
2023/04/29 11:00:33;;;;;;;;;;;13.50;47.40;;;;;;4107967;28;19959;-87
2023/04/29 11:02:35;;;;;;;;;;;13.50;47.10;;;;;;4112702;28;19910;-84
2023/04/29 11:04:56;;;;;;;;;;;13.60;48.00;;;;;;4110676;28;19921;-83
2023/04/29 11:06:57;;;;;;;;;;;13.60;48.40;;;;;;4096811;28;19918;-85
2023/04/29 11:08:59;;;;;;;;;;;13.60;48.80;;;;;;4111655;28;19930;-84
2023/04/29 11:11:03;;;;;;;;;;;13.60;48.90;;;;;;4100252;28;19922;-84
2023/04/29 11:13:22;;;;;;;;;;;13.70;48.80;;;;;;4107520;28;19922;-84
2023/04/29 11:15:23;;;;;;;;;;;13.60;48.30;;;;;;4107933;28;19922;-84
2023/04/29 11:17:23;;;;;;;;;;;13.70;48.40;;;;;;4107161;28;20023;-83
2023/04/29 11:19:25;;;;;;;;;;;13.70;48.20;;;;;;4100342;28;19936;-83
2023/04/29 11:21:26;;;;;;;;;;;13.70;48.50;;;;;;4104624;28;19993;-84
2023/04/29 11:23:26;;;;;;;;;;;13.70;47.40;;;;;;4107026;28;19918;-84
2023/04/29 11:25:27;;;;;;;;;;;13.70;47.40;;;;;;4089136;28;19927;-84
2023/04/29 11:27:35;;;;;;;;;;;13.60;47.80;;;;;;4105201;28;20561;-84
2023/04/29 11:29:35;;;;;;;;;;;13.60;48.10;;;;;;4105270;28;19918;-85
2023/04/29 11:31:38;;;;;;;;;;;13.60;47.70;;;;;;4099259;28;19929;-83
2023/04/29 11:33:38;;;;;;;;;;;13.50;47.10;;;;;;4107481;28;19942;-83
2023/04/29 11:35:39;;;;;;;;;;;13.40;47.30;;;;;;4103902;28;19922;-83
2023/04/29 11:37:40;;;;;;;;;;;13.40;47.80;;;;;;4122388;28;19928;-81
2023/04/29 11:39:41;;;;;;;;;;;13.30;47.60;;;;;;4122664;28;19918;-83
2023/04/29 11:41:41;;;;;;;;;;;13.20;48.10;;;;;;4108188;28;20017;-84
2023/04/29 11:43:44;;;;;;;;;;;13.20;48.60;;;;;;4117136;28;19953;-84
2023/04/29 11:45:45;;;;;;;;;;;13.20;49.10;;;;;;4093539;28;19914;-81
2023/04/29 11:47:47;;;;;;;;;;;13.10;49.80;;;;;;4107920;28;20313;-82
2023/04/29 11:49:47;;;;;;;;;;;13.10;50.20;;;;;;4102956;28;20370;-84
2023/04/29 11:51:48;;;;;;;;;;;13.10;50.40;;;;;;4103877;28;19953;-84
2023/04/29 11:53:50;;;;;;;;;;;13.10;50.20;;;;;;4104847;28;19913;-84
2023/04/29 11:55:53;;;;;;;;;;;13.00;50.80;;;;;;4108994;28;19922;-83
2023/04/29 11:57:54;;;;;;;;;;;12.90;50.90;;;;;;4110577;28;19938;-83
2023/04/29 11:59:56;;;;;;;;;;;12.90;51.70;;;;;;4110194;28;19950;-84
2023/04/29 12:01:57;;;;;;;;;;;12.90;51.50;;;;;;4104807;28;19926;-83
2023/04/29 12:03:58;;;;;;;;;;;12.80;51.80;;;;;;4106507;28;19930;-84
2023/04/29 12:06:00;;;;;;;;;;;12.70;52.40;;;;;;4090085;28;19923;-85
2023/04/29 12:08:00;;;;;;;;;;;12.70;52.40;;;;;;4104095;28;19924;-85
2023/04/29 12:10:01;;;;;;;;;;;12.60;52.90;;;;;;4105912;28;19921;-84
2023/04/29 12:12:02;;;;;;;;;;;12.60;53.50;;;;;;4103899;28;19921;-84
2023/04/29 12:14:05;;;;;;;;;;;12.50;53.40;;;;;;4086045;28;19934;-85
2023/04/29 12:16:05;;;;;;;;;;;12.50;53.30;;;;;;4099826;28;19929;-84
2023/04/29 12:18:07;;;;;;;;;;;12.50;53.70;;;;;;4102336;28;20500;-85
2023/04/29 12:20:09;;;;;;;;;;;12.50;53.80;;;;;;4118132;28;19960;-85